createdAt,value
2019-02-02T00:02:28.990Z,97866.94
2019-02-02T00:05:32.507Z,97867.45
2019-02-02T00:08:36.043Z,97867.61
2019-02-02T00:11:39.492Z,97866.61
2019-02-02T00:14:45.274Z,97866.77
2019-02-02T00:17:48.871Z,97872.55
2019-02-02T00:20:52.408Z,97866.77
2019-02-02T00:23:55.938Z,97863.64
2019-02-02T00:27:00.486Z,97861.31
2019-02-02T00:30:05.204Z,97868.58
2019-02-02T00:33:08.724Z,97859.31
2019-02-02T00:36:12.215Z,97864.61
2019-02-02T00:39:15.719Z,97866.44
2019-02-02T00:42:19.199Z,97870.90
2019-02-02T00:45:22.730Z,97865.13
2019-02-02T00:48:26.228Z,97867.25
2019-02-02T00:51:29.715Z,97866.09
2019-02-02T00:54:33.150Z,97872.22
2019-02-02T00:57:37.767Z,97870.06
2019-02-02T01:00:43.475Z,97872.22
2019-02-02T01:03:48.082Z,97871.90
2019-02-02T01:06:51.742Z,97883.30
2019-02-02T01:09:55.226Z,97880.16
2019-02-02T01:13:00.854Z,97880.16
2019-02-02T01:16:04.481Z,97879.84
2019-02-02T01:19:08.003Z,97877.52
2019-02-02T01:22:11.448Z,97871.54
2019-02-02T01:25:16.022Z,97873.70
2019-02-02T01:28:20.527Z,97873.70
2019-02-02T01:31:23.973Z,97876.52
2019-02-02T01:34:27.438Z,97889.59
2019-02-02T01:37:30.950Z,97882.13
2019-02-02T01:40:34.438Z,97871.22
2019-02-02T01:43:38.037Z,97871.54
2019-02-02T01:46:41.545Z,97864.59
2019-02-02T01:49:45.057Z,97879.48
2019-02-02T01:52:48.540Z,97871.90
2019-02-02T01:55:51.987Z,97868.56
2019-02-02T01:58:55.553Z,97881.64
2019-02-02T02:01:59.041Z,97899.02
2019-02-02T02:05:02.546Z,97889.27
2019-02-02T02:08:06.041Z,97852.69
2019-02-02T02:11:09.556Z,97847.39
2019-02-02T02:14:13.053Z,97853.01
2019-02-02T02:17:17.559Z,97857.82
2019-02-02T02:20:23.870Z,97855.01
2019-02-02T02:23:26.256Z,97865.92
2019-02-02T02:26:29.745Z,97870.22
2019-02-02T02:29:33.217Z,97857.98
2019-02-02T02:32:36.658Z,97861.11
2019-02-02T02:35:40.196Z,97854.01
2019-02-02T02:38:43.700Z,97837.80
2019-02-02T02:41:47.246Z,97838.13
2019-02-02T02:44:50.719Z,97835.80
2019-02-02T02:47:54.231Z,97829.34
2019-02-02T02:50:57.726Z,97831.51
2019-02-02T02:54:01.216Z,97835.00
2019-02-02T02:57:04.711Z,97850.88
2019-02-02T03:00:11.849Z,97840.45
2019-02-02T03:03:15.331Z,97838.61
2019-02-02T03:06:18.809Z,97839.61
2019-02-02T03:09:22.414Z,97831.67
2019-02-02T03:12:25.917Z,97844.75
2019-02-02T03:15:30.549Z,97847.06
2019-02-02T03:18:34.310Z,97837.80
2019-02-02T03:21:37.836Z,97856.33
2019-02-02T03:24:41.291Z,97856.33
2019-02-02T03:27:44.767Z,97870.73
2019-02-02T03:30:48.340Z,97872.22
2019-02-02T03:33:51.850Z,97861.63
2019-02-02T03:36:55.363Z,97857.33
2019-02-02T03:39:58.857Z,97855.01
2019-02-02T03:43:03.370Z,97858.66
2019-02-02T03:46:07.922Z,97857.33
2019-02-02T03:49:12.412Z,97851.65
2019-02-02T03:52:15.928Z,97834.60
2019-02-02T03:55:19.435Z,97829.15
2019-02-02T03:58:23.020Z,97834.83
2019-02-02T04:01:26.463Z,97849.00
2019-02-02T04:04:29.922Z,97845.88
2019-02-02T04:07:35.504Z,97862.23
2019-02-02T04:10:38.964Z,97864.56
2019-02-02T04:13:42.468Z,97868.53
2019-02-02T04:16:45.969Z,97873.21
2019-02-02T04:19:49.491Z,97868.38
2019-02-02T04:22:53.999Z,97855.30
2019-02-02T04:25:59.154Z,97860.91
2019-02-02T04:29:02.643Z,97874.15
2019-02-02T04:32:06.148Z,97875.15
2019-02-02T04:35:09.998Z,97868.86
2019-02-02T04:38:13.440Z,97880.44
2019-02-02T04:41:17.062Z,97879.44
2019-02-02T04:44:20.567Z,97885.73
2019-02-02T04:47:24.062Z,97889.09
2019-02-02T04:50:28.599Z,97882.09
2019-02-02T04:53:32.072Z,97865.56
2019-02-02T04:56:35.594Z,97868.86
2019-02-02T04:59:39.069Z,97880.44
2019-02-02T05:02:42.602Z,97887.06
2019-02-02T05:05:46.086Z,97883.09
2019-02-02T05:08:49.581Z,97889.37
2019-02-02T05:11:53.119Z,97889.37
2019-02-02T05:14:56.583Z,97899.61
2019-02-02T05:18:00.104Z,97927.77
2019-02-02T05:21:03.671Z,97921.63
2019-02-02T05:24:07.085Z,97911.36
2019-02-02T05:27:10.613Z,97912.36
2019-02-02T05:30:18.000Z,97912.84
2019-02-02T05:33:21.470Z,97927.25
2019-02-02T05:36:25.010Z,97921.95
2019-02-02T05:39:28.482Z,97919.46
2019-02-02T05:42:32.101Z,97934.38
2019-02-02T05:45:35.761Z,97950.59
2019-02-02T05:48:39.402Z,97939.67
2019-02-02T05:51:42.900Z,97929.56
2019-02-02T05:54:46.398Z,97928.73
2019-02-02T05:57:49.930Z,97926.44
2019-02-02T06:00:55.449Z,97935.70
2019-02-02T06:03:58.946Z,97921.63
2019-02-02T06:07:02.468Z,97924.76
2019-02-02T06:10:08.092Z,97923.80
2019-02-02T06:13:11.712Z,97911.52
2019-02-02T06:16:15.212Z,97934.86
2019-02-02T06:19:18.737Z,97950.27
2019-02-02T06:22:22.208Z,97945.94
2019-02-02T06:25:25.716Z,97946.29
2019-02-02T06:28:30.238Z,97961.00
2019-02-02T06:31:34.762Z,97970.92
2019-02-02T06:34:38.270Z,97967.47
2019-02-02T06:37:41.758Z,97965.78
2019-02-02T06:40:46.285Z,97973.25
2019-02-02T06:43:49.727Z,97978.54
2019-02-02T06:46:53.296Z,97976.73
2019-02-02T06:49:56.773Z,97993.58
2019-02-02T06:53:01.816Z,97982.66
2019-02-02T06:56:05.481Z,97981.34
2019-02-02T06:59:09.030Z,97978.69
2019-02-02T07:02:12.635Z,97981.34
2019-02-02T07:05:16.171Z,97987.48
2019-02-02T07:08:19.632Z,97982.34
2019-02-02T07:11:23.164Z,97989.28
2019-02-02T07:14:26.629Z,98009.46
2019-02-02T07:17:30.137Z,98017.91
2019-02-02T07:20:33.647Z,98014.91
2019-02-02T07:23:37.153Z,98006.48
2019-02-02T07:26:40.743Z,98021.05
2019-02-02T07:29:44.394Z,98019.39
2019-02-02T07:32:47.839Z,98017.55
2019-02-02T07:35:54.025Z,98033.95
2019-02-02T07:38:56.609Z,98034.77
2019-02-02T07:42:00.075Z,98045.35
2019-02-02T07:45:03.685Z,98055.45
2019-02-02T07:48:07.215Z,98063.39
2019-02-02T07:51:10.700Z,98057.11
2019-02-02T07:54:14.202Z,98070.02
2019-02-02T07:57:17.879Z,98077.47
2019-02-02T08:00:40.427Z,98082.25
2019-02-02T08:03:34.737Z,98089.72
2019-02-02T08:06:39.369Z,98095.16
2019-02-02T08:09:43.968Z,98093.84
2019-02-02T08:12:47.481Z,98083.58
2019-02-02T08:15:50.979Z,98091.21
2019-02-02T08:18:54.489Z,98097.25
2019-02-02T08:21:57.990Z,98087.06
2019-02-02T08:25:01.499Z,98083.26
2019-02-02T08:28:05.200Z,98085.06
2019-02-02T08:31:08.685Z,98093.88
2019-02-02T08:34:12.229Z,98098.38
2019-02-02T08:37:15.690Z,98104.00
2019-02-02T08:40:19.210Z,98113.27
2019-02-02T08:43:22.831Z,98117.41
2019-02-02T08:46:26.398Z,98121.88
2019-02-02T08:49:30.030Z,98133.79
2019-02-02T08:52:33.614Z,98143.57
2019-02-02T08:55:37.269Z,98144.23
2019-02-02T08:58:40.815Z,98157.98
2019-02-02T09:01:44.314Z,98158.47
2019-02-02T09:04:47.998Z,98158.80
2019-02-02T09:07:51.825Z,98166.26
2019-02-02T09:10:55.439Z,98173.19
2019-02-02T09:13:58.954Z,98178.79
2019-02-02T09:17:02.429Z,98175.83
2019-02-02T09:20:06.731Z,98184.77
2019-02-02T09:23:10.284Z,98179.63
2019-02-02T09:26:13.861Z,98167.87
2019-02-02T09:29:17.518Z,98177.46
2019-02-02T09:32:21.175Z,98177.98
2019-02-02T09:35:25.687Z,98177.46
2019-02-02T09:38:29.200Z,98190.86
2019-02-02T09:41:32.705Z,98186.08
2019-02-02T09:44:36.360Z,98183.27
2019-02-02T09:47:40.923Z,98193.02
2019-02-02T09:50:44.433Z,98190.38
2019-02-02T09:53:48.977Z,98195.67
2019-02-02T09:56:52.449Z,98192.03
2019-02-02T10:00:00.091Z,98199.67
2019-02-02T10:03:03.819Z,98199.34
2019-02-02T10:06:07.563Z,98190.73
2019-02-02T10:09:11.222Z,98192.27
2019-02-02T10:12:14.662Z,98196.72
2019-02-02T10:15:19.439Z,98187.45
2019-02-02T10:18:22.909Z,98190.73
2019-02-02T10:21:26.404Z,98191.09
2019-02-02T10:24:30.015Z,98189.74
2019-02-02T10:27:33.738Z,98195.22
2019-02-02T10:30:39.406Z,98193.89
2019-02-02T10:33:42.909Z,98184.77
2019-02-02T10:36:46.577Z,98190.73
2019-02-02T10:39:52.918Z,98198.02
2019-02-02T10:42:56.526Z,98199.02
2019-02-02T10:46:00.127Z,98199.49
2019-02-02T10:49:04.118Z,98196.36
2019-02-02T10:52:08.866Z,98200.66
2019-02-02T10:55:13.179Z,98199.02
2019-02-02T10:58:17.633Z,98193.35
2019-02-02T11:01:21.136Z,98194.67
2019-02-02T11:04:24.651Z,98202.63
2019-02-02T11:07:28.137Z,98211.56
2019-02-02T11:10:31.669Z,98232.11
2019-02-02T11:13:35.269Z,98238.55
2019-02-02T11:16:38.931Z,98239.87
2019-02-02T11:19:45.057Z,98242.05
2019-02-02T11:22:48.503Z,98239.39
2019-02-02T11:25:52.125Z,98245.38
2019-02-02T11:28:55.775Z,98250.32
2019-02-02T11:32:03.060Z,98246.34
2019-02-02T11:35:05.575Z,98241.89
2019-02-02T11:38:10.121Z,98246.20
2019-02-02T11:41:13.708Z,98251.02
2019-02-02T11:44:19.930Z,98245.38
2019-02-02T11:47:22.646Z,98251.80
2019-02-02T11:50:26.179Z,98260.41
2019-02-02T11:53:29.647Z,98267.17
2019-02-02T11:56:33.161Z,98264.53
2019-02-02T11:59:36.678Z,98269.82
2019-02-02T12:02:49.081Z,98281.73
2019-02-02T12:05:45.539Z,98278.25
2019-02-02T12:08:49.427Z,98288.19
2019-02-02T12:11:52.904Z,98293.11
2019-02-02T12:14:56.959Z,98292.97
2019-02-02T12:18:00.812Z,98300.91
2019-02-02T12:21:04.449Z,98304.25
2019-02-02T12:24:15.867Z,98313.52
2019-02-02T12:27:15.346Z,98313.85
2019-02-02T12:30:20.945Z,98313.22
2019-02-02T12:33:26.027Z,98317.20
2019-02-02T12:36:30.855Z,98319.55
2019-02-02T12:39:34.561Z,98322.52
2019-02-02T12:42:38.537Z,98333.27
2019-02-02T12:45:53.461Z,98338.12
2019-02-02T12:48:58.568Z,98341.09
2019-02-02T12:52:02.404Z,98341.09
2019-02-02T12:55:05.963Z,98334.47
2019-02-02T12:58:09.633Z,98336.80
2019-02-02T13:01:13.462Z,98347.23
2019-02-02T13:04:17.183Z,98352.69
2019-02-02T13:07:22.170Z,98362.62
2019-02-02T13:10:26.371Z,98381.16
2019-02-02T13:13:30.009Z,98379.80
2019-02-02T13:16:33.464Z,98380.17
2019-02-02T13:19:37.090Z,98381.12
2019-02-02T13:22:40.669Z,98381.27
2019-02-02T13:25:44.210Z,98369.17
2019-02-02T13:28:47.774Z,98366.52
2019-02-02T13:31:51.400Z,98366.19
2019-02-02T13:34:56.768Z,98362.22
2019-02-02T13:38:00.428Z,98353.58
2019-02-02T13:41:04.046Z,98359.23
2019-02-02T13:44:07.758Z,98361.89
2019-02-02T13:47:11.344Z,98364.87
2019-02-02T13:50:15.520Z,98369.17
2019-02-02T13:53:18.953Z,98379.77
2019-02-02T13:56:22.598Z,98393.48
2019-02-02T13:59:26.357Z,98403.27
2019-02-02T14:02:29.973Z,98391.35
2019-02-02T14:05:33.618Z,98389.37
2019-02-02T14:08:37.136Z,98399.96
2019-02-02T14:11:41.629Z,98413.20
2019-02-02T14:14:47.269Z,98415.86
2019-02-02T14:17:50.849Z,98419.20
2019-02-02T14:20:55.498Z,98426.45
2019-02-02T14:23:59.084Z,98424.98
2019-02-02T14:27:04.664Z,98432.44
2019-02-02T14:30:13.513Z,98439.69
2019-02-02T14:33:16.959Z,98448.34
2019-02-02T14:36:20.482Z,98450.66
2019-02-02T14:39:24.989Z,98456.39
2019-02-02T14:42:28.491Z,98468.02
2019-02-02T14:45:31.999Z,98459.52
2019-02-02T14:48:36.511Z,98463.48
2019-02-02T14:51:40.130Z,98467.31
2019-02-02T14:54:44.135Z,98459.52
2019-02-02T14:57:47.621Z,98459.22
2019-02-02T15:00:54.058Z,98449.66
2019-02-02T15:03:57.512Z,98448.00
2019-02-02T15:07:01.014Z,98467.58
2019-02-02T15:10:04.918Z,98480.64
2019-02-02T15:13:08.411Z,98492.92
2019-02-02T15:16:11.914Z,98495.58
2019-02-02T15:19:15.436Z,98493.11
2019-02-02T15:22:18.937Z,98511.66
2019-02-02T15:25:22.743Z,98504.74
2019-02-02T15:28:26.325Z,98500.30
2019-02-02T15:31:29.761Z,98500.11
2019-02-02T15:34:33.349Z,98501.80
2019-02-02T15:37:36.848Z,98500.48
2019-02-02T15:40:41.384Z,98500.30
2019-02-02T15:43:44.868Z,98520.34
2019-02-02T15:46:49.406Z,98530.14
2019-02-02T15:49:53.164Z,98532.61
2019-02-02T15:52:56.813Z,98533.59
2019-02-02T15:56:00.304Z,98533.93
2019-02-02T15:59:03.897Z,98537.28
2019-02-02T16:02:07.546Z,98548.55
2019-02-02T16:05:12.448Z,98552.81
2019-02-02T16:08:16.294Z,98574.00
2019-02-02T16:11:19.843Z,98586.30
2019-02-02T16:14:23.448Z,98590.60
2019-02-02T16:17:27.060Z,98614.45
2019-02-02T16:20:33.154Z,98625.23
2019-02-02T16:23:36.742Z,98631.38
2019-02-02T16:26:40.858Z,98625.75
2019-02-02T16:29:44.434Z,98631.72
2019-02-02T16:32:48.159Z,98643.02
2019-02-02T16:35:51.755Z,98659.59
2019-02-02T16:38:55.244Z,98664.89
2019-02-02T16:41:58.740Z,98670.19
2019-02-02T16:45:02.251Z,98675.48
2019-02-02T16:48:06.260Z,98674.17
2019-02-02T16:51:09.886Z,98687.08
2019-02-02T16:54:13.475Z,98677.80
2019-02-02T16:57:17.074Z,98694.55
2019-02-02T17:00:25.588Z,98698.53
2019-02-02T17:03:29.182Z,98685.13
2019-02-02T17:06:32.703Z,98700.67
2019-02-02T17:09:36.296Z,98719.73
2019-02-02T17:12:39.936Z,98725.84
2019-02-02T17:15:43.424Z,98714.91
2019-02-02T17:18:47.038Z,98721.19
2019-02-02T17:21:50.619Z,98714.56
2019-02-02T17:24:54.931Z,98715.52
2019-02-02T17:27:58.450Z,98716.17
2019-02-02T17:31:01.940Z,98717.64
2019-02-02T17:34:05.460Z,98738.98
2019-02-02T17:37:08.928Z,98749.72
2019-02-02T17:40:14.718Z,98757.47
2019-02-02T17:43:18.204Z,98764.91
2019-02-02T17:46:21.713Z,98761.45
2019-02-02T17:49:25.182Z,98766.74
2019-02-02T17:52:28.684Z,98768.41
2019-02-02T17:55:33.319Z,98773.77
2019-02-02T17:58:39.749Z,98795.02
2019-02-02T18:01:43.352Z,98795.02
2019-02-02T18:04:46.979Z,98804.66
2019-02-02T18:07:50.512Z,98802.69
2019-02-02T18:10:54.097Z,98815.94
2019-02-02T18:13:57.688Z,98810.64
2019-02-02T18:17:01.210Z,98814.98
2019-02-02T18:20:06.903Z,98815.94
2019-02-02T18:23:11.610Z,98814.98
2019-02-02T18:26:15.213Z,98826.20
2019-02-02T18:29:18.705Z,98824.03
2019-02-02T18:32:22.199Z,98827.53
2019-02-02T18:35:25.904Z,98823.75
2019-02-02T18:38:29.406Z,98831.84
2019-02-02T18:41:32.903Z,98836.19
2019-02-02T18:44:36.565Z,98833.16
2019-02-02T18:47:40.123Z,98839.79
2019-02-02T18:50:44.622Z,98847.73
2019-02-02T18:53:48.145Z,98845.46
2019-02-02T18:56:51.623Z,98851.38
2019-02-02T18:59:56.152Z,98853.05
2019-02-02T19:02:59.658Z,98857.39
2019-02-02T19:06:04.388Z,98857.73
2019-02-02T19:09:08.771Z,98853.89
2019-02-02T19:12:12.416Z,98855.89
2019-02-02T19:15:15.929Z,98857.08
2019-02-02T19:18:19.479Z,98868.39
2019-02-02T19:21:23.222Z,98870.05
2019-02-02T19:24:26.986Z,98883.67
2019-02-02T19:27:37.312Z,98890.30
2019-02-02T19:30:40.854Z,98899.07
2019-02-02T19:33:44.421Z,98901.58
2019-02-02T19:36:50.045Z,98904.58
2019-02-02T19:39:53.598Z,98906.88
2019-02-02T19:42:57.044Z,98912.89
2019-02-02T19:46:06.703Z,98908.55
2019-02-02T19:49:11.278Z,98907.73
2019-02-02T19:52:14.933Z,98919.16
2019-02-02T19:55:18.432Z,98916.67
2019-02-02T19:58:21.919Z,98920.14
2019-02-02T20:01:25.624Z,98917.48
2019-02-02T20:04:30.174Z,98928.09
2019-02-02T20:07:33.676Z,98924.76
2019-02-02T20:10:37.201Z,98935.36
2019-02-02T20:13:41.683Z,98943.66
2019-02-02T20:16:46.215Z,98944.33
2019-02-02T20:19:49.734Z,98938.02
2019-02-02T20:22:53.621Z,98944.64
2019-02-02T20:25:57.123Z,98961.93
2019-02-02T20:29:00.740Z,98970.84
2019-02-02T20:32:04.325Z,98975.52
2019-02-02T20:35:08.642Z,98976.38
2019-02-02T20:38:12.199Z,98971.28
2019-02-02T20:41:15.647Z,98988.51
2019-02-02T20:44:19.154Z,98995.81
2019-02-02T20:47:22.645Z,98985.21
2019-02-02T20:50:26.367Z,98994.48
2019-02-02T20:53:29.880Z,99016.07
2019-02-02T20:56:33.365Z,99011.14
2019-02-02T20:59:37.897Z,99012.09
2019-02-02T21:02:41.423Z,99025.17
2019-02-02T21:05:52.050Z,99037.75
2019-02-02T21:08:50.137Z,99037.16
2019-02-02T21:11:57.132Z,99045.89
2019-02-02T21:14:59.899Z,99043.30
2019-02-02T21:18:03.391Z,99058.35
2019-02-02T21:21:07.312Z,99071.52
2019-02-02T21:24:10.818Z,99067.81
2019-02-02T21:27:14.354Z,99067.47
2019-02-02T21:30:29.068Z,99068.92
2019-02-02T21:33:32.509Z,99053.03
2019-02-02T21:36:36.000Z,99054.22
2019-02-02T21:39:39.467Z,99052.52
2019-02-02T21:42:42.904Z,99054.22
2019-02-02T21:45:46.383Z,99051.49
2019-02-02T21:48:49.879Z,99056.92
2019-02-02T21:51:53.694Z,99056.08
2019-02-02T21:54:57.185Z,99066.67
2019-02-02T21:58:00.754Z,99064.88
2019-02-02T22:01:04.274Z,99061.03
2019-02-02T22:04:07.873Z,99075.60
2019-02-02T22:07:11.500Z,99079.20
2019-02-02T22:10:15.024Z,99083.09
2019-02-02T22:13:18.488Z,99078.64
2019-02-02T22:16:21.994Z,99091.05
2019-02-02T22:19:27.540Z,99098.30
2019-02-02T22:22:32.119Z,99098.30
2019-02-02T22:25:35.596Z,99098.56
2019-02-02T22:28:40.105Z,99104.97
2019-02-02T22:31:44.841Z,99118.56
2019-02-02T22:34:48.280Z,99135.56
2019-02-02T22:37:51.828Z,99149.16
2019-02-02T22:40:55.321Z,99150.95
2019-02-02T22:43:58.817Z,99145.78
2019-02-02T22:47:02.333Z,99149.06
2019-02-02T22:50:06.957Z,99153.04
2019-02-02T22:53:11.388Z,99175.17
2019-02-02T22:56:16.933Z,99197.34
2019-02-02T22:59:20.379Z,99220.20
2019-02-02T23:02:25.360Z,99235.75
2019-02-02T23:05:49.345Z,99238.05
2019-02-02T23:09:17.513Z,99225.78
2019-02-02T23:12:33.566Z,99227.45
2019-02-02T23:16:22.435Z,99235.75
2019-02-02T23:19:26.186Z,99224.47
2019-02-02T23:22:29.810Z,99209.89
2019-02-02T23:25:34.794Z,99211.69
2019-02-02T23:28:38.440Z,99227.45
2019-02-02T23:31:41.930Z,99226.73
2019-02-02T23:34:45.423Z,99225.78
2019-02-02T23:37:48.929Z,99230.36
2019-02-02T23:40:53.464Z,99231.34
2019-02-02T23:43:57.007Z,99228.31
2019-02-02T23:47:01.485Z,99212.42
2019-02-02T23:50:05.445Z,99194.86
2019-02-02T23:53:08.890Z,99205.95
2019-02-02T23:56:12.390Z,99222.31
2019-02-02T23:59:15.893Z,99235.22
